sensor_id;sensor_type;location;lat;lon;timestamp;P1;P2;P0
45700;PMS5003;36277;32.852;-116.998;2023-06-14T00:02:14;1.00;1.00;1.00
45700;PMS5003;36277;32.852;-116.998;2023-06-14T00:04:41;1.00;1.00;1.00
45700;PMS5003;36277;32.852;-116.998;2023-06-14T00:07:08;1.00;1.00;1.00
45700;PMS5003;36277;32.852;-116.998;2023-06-14T00:09:35;1.20;1.20;1.00
45700;PMS5003;36277;32.852;-116.998;2023-06-14T00:12:01;2.20;2.20;2.00
45700;PMS5003;36277;32.852;-116.998;2023-06-14T00:14:28;1.00;1.00;1.00
45700;PMS5003;36277;32.852;-116.998;2023-06-14T00:16:54;1.00;1.00;1.00
45700;PMS5003;36277;32.852;-116.998;2023-06-14T00:19:24;2.00;2.00;2.00
45700;PMS5003;36277;32.852;-116.998;2023-06-14T00:21:52;1.40;1.40;1.00
45700;PMS5003;36277;32.852;-116.998;2023-06-14T00:24:19;1.00;1.00;1.00
45700;PMS5003;36277;32.852;-116.998;2023-06-14T00:26:48;1.40;1.40;1.00
45700;PMS5003;36277;32.852;-116.998;2023-06-14T00:29:14;1.00;1.00;1.00
45700;PMS5003;36277;32.852;-116.998;2023-06-14T00:31:40;1.00;1.00;1.00
45700;PMS5003;36277;32.852;-116.998;2023-06-14T00:34:07;1.80;1.80;1.80
45700;PMS5003;36277;32.852;-116.998;2023-06-14T00:36:34;2.00;2.00;1.40
45700;PMS5003;36277;32.852;-116.998;2023-06-14T00:39:00;1.00;1.00;1.00
45700;PMS5003;36277;32.852;-116.998;2023-06-14T00:41:28;1.00;1.00;1.00
45700;PMS5003;36277;32.852;-116.998;2023-06-14T00:43:55;1.00;1.00;1.00
45700;PMS5003;36277;32.852;-116.998;2023-06-14T00:46:22;1.00;1.00;1.00
45700;PMS5003;36277;32.852;-116.998;2023-06-14T00:48:48;1.40;1.40;1.20
45700;PMS5003;36277;32.852;-116.998;2023-06-14T00:51:15;1.00;1.00;1.00
45700;PMS5003;36277;32.852;-116.998;2023-06-14T00:53:41;2.00;2.00;2.00
45700;PMS5003;36277;32.852;-116.998;2023-06-14T00:56:12;1.00;1.00;1.00
45700;PMS5003;36277;32.852;-116.998;2023-06-14T00:58:40;1.00;1.00;1.00
45700;PMS5003;36277;32.852;-116.998;2023-06-14T01:01:07;1.00;1.00;0.20
45700;PMS5003;36277;32.852;-116.998;2023-06-14T01:03:34;1.00;1.00;1.00
45700;PMS5003;36277;32.852;-116.998;2023-06-14T01:06:10;1.00;1.00;0.40
45700;PMS5003;36277;32.852;-116.998;2023-06-14T01:08:45;0.60;0.60;0.60
45700;PMS5003;36277;32.852;-116.998;2023-06-14T01:11:24;1.00;1.00;1.00
45700;PMS5003;36277;32.852;-116.998;2023-06-14T01:13:56;0.80;0.80;0.80
45700;PMS5003;36277;32.852;-116.998;2023-06-14T01:16:25;1.00;1.00;1.00
45700;PMS5003;36277;32.852;-116.998;2023-06-14T01:18:52;1.00;1.00;1.00
45700;PMS5003;36277;32.852;-116.998;2023-06-14T01:21:22;1.00;1.00;1.00
45700;PMS5003;36277;32.852;-116.998;2023-06-14T01:23:49;1.00;1.00;1.00
45700;PMS5003;36277;32.852;-116.998;2023-06-14T01:26:23;1.00;1.00;1.00
45700;PMS5003;36277;32.852;-116.998;2023-06-14T01:28:49;0.80;0.80;0.80
45700;PMS5003;36277;32.852;-116.998;2023-06-14T01:31:19;1.00;1.00;1.00
45700;PMS5003;36277;32.852;-116.998;2023-06-14T01:33:49;1.00;1.00;1.00
45700;PMS5003;36277;32.852;-116.998;2023-06-14T01:36:19;1.00;1.00;1.00
45700;PMS5003;36277;32.852;-116.998;2023-06-14T01:38:48;2.00;2.00;2.00
45700;PMS5003;36277;32.852;-116.998;2023-06-14T01:41:20;1.00;1.00;1.00
45700;PMS5003;36277;32.852;-116.998;2023-06-14T01:43:48;1.40;1.40;1.40
45700;PMS5003;36277;32.852;-116.998;2023-06-14T01:46:16;1.00;1.00;1.00
45700;PMS5003;36277;32.852;-116.998;2023-06-14T01:48:42;1.00;1.00;1.00
45700;PMS5003;36277;32.852;-116.998;2023-06-14T01:51:09;1.00;1.00;1.00
45700;PMS5003;36277;32.852;-116.998;2023-06-14T01:53:35;1.80;1.80;1.60
45700;PMS5003;36277;32.852;-116.998;2023-06-14T01:56:02;2.80;2.80;2.20
45700;PMS5003;36277;32.852;-116.998;2023-06-14T01:58:28;2.00;2.00;2.00
45700;PMS5003;36277;32.852;-116.998;2023-06-14T02:00:55;3.00;3.00;2.80
45700;PMS5003;36277;32.852;-116.998;2023-06-14T02:03:21;1.20;1.20;1.00
45700;PMS5003;36277;32.852;-116.998;2023-06-14T02:05:48;1.80;1.80;1.40
45700;PMS5003;36277;32.852;-116.998;2023-06-14T02:08:15;2.00;2.00;2.00
45700;PMS5003;36277;32.852;-116.998;2023-06-14T02:10:41;3.40;3.40;3.00
45700;PMS5003;36277;32.852;-116.998;2023-06-14T02:13:08;2.00;2.00;2.00
45700;PMS5003;36277;32.852;-116.998;2023-06-14T02:15:35;3.00;3.00;3.00
45700;PMS5003;36277;32.852;-116.998;2023-06-14T02:18:02;3.80;3.80;3.20
45700;PMS5003;36277;32.852;-116.998;2023-06-14T02:20:29;3.60;3.60;3.40
45700;PMS5003;36277;32.852;-116.998;2023-06-14T02:22:56;3.00;3.00;3.00
45700;PMS5003;36277;32.852;-116.998;2023-06-14T02:25:23;3.00;3.00;3.00
45700;PMS5003;36277;32.852;-116.998;2023-06-14T02:27:49;3.00;3.00;3.00
45700;PMS5003;36277;32.852;-116.998;2023-06-14T02:30:15;4.00;4.00;4.00
45700;PMS5003;36277;32.852;-116.998;2023-06-14T02:32:42;3.40;3.40;3.40
45700;PMS5003;36277;32.852;-116.998;2023-06-14T02:35:08;2.00;2.00;1.80
45700;PMS5003;36277;32.852;-116.998;2023-06-14T02:37:35;3.00;3.00;2.60
45700;PMS5003;36277;32.852;-116.998;2023-06-14T02:40:01;3.00;3.00;3.00
45700;PMS5003;36277;32.852;-116.998;2023-06-14T02:42:28;2.00;2.00;2.00
45700;PMS5003;36277;32.852;-116.998;2023-06-14T02:44:55;2.00;2.00;2.00
45700;PMS5003;36277;32.852;-116.998;2023-06-14T02:47:21;0.00;0.00;0.00
45700;PMS5003;36277;32.852;-116.998;2023-06-14T02:49:48;1.00;1.00;1.00
45700;PMS5003;36277;32.852;-116.998;2023-06-14T02:52:14;1.00;1.00;1.00
45700;PMS5003;36277;32.852;-116.998;2023-06-14T02:54:40;1.00;1.00;1.00
45700;PMS5003;36277;32.852;-116.998;2023-06-14T02:57:07;1.20;1.20;1.00
45700;PMS5003;36277;32.852;-116.998;2023-06-14T02:59:33;2.00;2.00;2.00
45700;PMS5003;36277;32.852;-116.998;2023-06-14T03:02:06;1.60;1.60;1.60
45700;PMS5003;36277;32.852;-116.998;2023-06-14T03:04:32;1.60;1.60;1.60
45700;PMS5003;36277;32.852;-116.998;2023-06-14T03:07:03;2.00;2.00;2.00
45700;PMS5003;36277;32.852;-116.998;2023-06-14T03:09:37;1.40;1.40;1.40
45700;PMS5003;36277;32.852;-116.998;2023-06-14T03:12:06;1.00;1.00;1.00
45700;PMS5003;36277;32.852;-116.998;2023-06-14T03:14:34;1.60;1.60;1.00
45700;PMS5003;36277;32.852;-116.998;2023-06-14T03:17:01;1.20;1.20;1.00
45700;PMS5003;36277;32.852;-116.998;2023-06-14T03:19:30;1.60;1.60;1.20
45700;PMS5003;36277;32.852;-116.998;2023-06-14T03:21:56;1.80;1.80;1.40
45700;PMS5003;36277;32.852;-116.998;2023-06-14T03:24:23;1.80;1.80;1.80
45700;PMS5003;36277;32.852;-116.998;2023-06-14T03:26:52;1.00;1.00;1.00
45700;PMS5003;36277;32.852;-116.998;2023-06-14T03:29:19;2.00;2.00;2.00
45700;PMS5003;36277;32.852;-116.998;2023-06-14T03:34:41;1.20;1.20;1.00
45700;PMS5003;36277;32.852;-116.998;2023-06-14T03:37:07;2.00;2.00;2.00
45700;PMS5003;36277;32.852;-116.998;2023-06-14T03:39:34;1.00;1.00;1.00
45700;PMS5003;36277;32.852;-116.998;2023-06-14T03:42:01;1.20;1.20;1.00
45700;PMS5003;36277;32.852;-116.998;2023-06-14T03:44:27;1.20;1.20;1.00
45700;PMS5003;36277;32.852;-116.998;2023-06-14T03:46:53;1.00;1.00;1.00
45700;PMS5003;36277;32.852;-116.998;2023-06-14T03:49:20;2.00;2.00;1.80
45700;PMS5003;36277;32.852;-116.998;2023-06-14T03:51:51;2.00;2.00;2.00
45700;PMS5003;36277;32.852;-116.998;2023-06-14T03:54:18;1.60;1.60;1.00
45700;PMS5003;36277;32.852;-116.998;2023-06-14T03:56:44;2.00;2.00;1.80
45700;PMS5003;36277;32.852;-116.998;2023-06-14T03:59:11;1.00;1.00;1.00
45700;PMS5003;36277;32.852;-116.998;2023-06-14T04:01:37;2.00;2.00;2.00
45700;PMS5003;36277;32.852;-116.998;2023-06-14T04:04:10;2.00;2.00;2.00
45700;PMS5003;36277;32.852;-116.998;2023-06-14T04:06:36;0.80;0.80;0.60
45700;PMS5003;36277;32.852;-116.998;2023-06-14T04:09:02;1.20;1.20;1.20
45700;PMS5003;36277;32.852;-116.998;2023-06-14T04:11:29;1.00;1.00;1.00
45700;PMS5003;36277;32.852;-116.998;2023-06-14T04:13:57;1.20;1.20;1.00
45700;PMS5003;36277;32.852;-116.998;2023-06-14T04:16:24;1.40;1.40;1.40
45700;PMS5003;36277;32.852;-116.998;2023-06-14T04:18:51;0.60;0.60;0.60
45700;PMS5003;36277;32.852;-116.998;2023-06-14T04:21:18;1.00;1.00;1.00
45700;PMS5003;36277;32.852;-116.998;2023-06-14T04:23:44;1.00;1.00;1.00
45700;PMS5003;36277;32.852;-116.998;2023-06-14T04:26:10;1.00;1.00;1.00
45700;PMS5003;36277;32.852;-116.998;2023-06-14T04:28:37;1.00;1.00;1.00
45700;PMS5003;36277;32.852;-116.998;2023-06-14T04:31:09;0.00;0.00;0.00
45700;PMS5003;36277;32.852;-116.998;2023-06-14T04:33:36;1.00;1.00;1.00
45700;PMS5003;36277;32.852;-116.998;2023-06-14T04:36:09;0.60;0.60;0.60
45700;PMS5003;36277;32.852;-116.998;2023-06-14T04:38:39;1.00;1.00;1.00
45700;PMS5003;36277;32.852;-116.998;2023-06-14T04:41:06;1.00;1.00;1.00
45700;PMS5003;36277;32.852;-116.998;2023-06-14T04:43:37;1.00;1.00;0.60
45700;PMS5003;36277;32.852;-116.998;2023-06-14T04:46:04;1.60;1.60;1.60
45700;PMS5003;36277;32.852;-116.998;2023-06-14T04:48:36;1.00;1.00;1.00
45700;PMS5003;36277;32.852;-116.998;2023-06-14T04:51:03;1.80;1.80;1.80
45700;PMS5003;36277;32.852;-116.998;2023-06-14T04:53:29;0.40;0.40;0.20
45700;PMS5003;36277;32.852;-116.998;2023-06-14T04:55:56;1.80;1.80;1.80
45700;PMS5003;36277;32.852;-116.998;2023-06-14T04:58:22;0.40;0.40;0.40
45700;PMS5003;36277;32.852;-116.998;2023-06-14T05:00:49;0.60;0.60;0.40
45700;PMS5003;36277;32.852;-116.998;2023-06-14T05:03:15;0.00;0.00;0.00
45700;PMS5003;36277;32.852;-116.998;2023-06-14T05:05:44;1.00;1.00;1.00
45700;PMS5003;36277;32.852;-116.998;2023-06-14T05:08:10;0.60;0.60;0.60
45700;PMS5003;36277;32.852;-116.998;2023-06-14T05:10:37;1.00;1.00;1.00
45700;PMS5003;36277;32.852;-116.998;2023-06-14T05:13:04;2.00;2.00;2.00
45700;PMS5003;36277;32.852;-116.998;2023-06-14T05:15:30;1.00;1.00;1.00
45700;PMS5003;36277;32.852;-116.998;2023-06-14T05:17:56;1.00;1.00;1.00
45700;PMS5003;36277;32.852;-116.998;2023-06-14T05:20:23;1.20;1.20;1.00
45700;PMS5003;36277;32.852;-116.998;2023-06-14T05:22:52;2.00;2.00;2.00
45700;PMS5003;36277;32.852;-116.998;2023-06-14T05:25:19;1.00;1.00;1.00
45700;PMS5003;36277;32.852;-116.998;2023-06-14T05:27:46;2.00;2.00;2.00
45700;PMS5003;36277;32.852;-116.998;2023-06-14T05:30:13;1.80;1.80;1.00
45700;PMS5003;36277;32.852;-116.998;2023-06-14T05:32:41;1.20;1.20;1.00
45700;PMS5003;36277;32.852;-116.998;2023-06-14T05:35:07;1.00;1.00;1.00
45700;PMS5003;36277;32.852;-116.998;2023-06-14T05:37:34;1.20;1.20;1.20
45700;PMS5003;36277;32.852;-116.998;2023-06-14T05:40:00;1.80;1.80;1.40
45700;PMS5003;36277;32.852;-116.998;2023-06-14T05:42:29;1.00;1.00;1.00
45700;PMS5003;36277;32.852;-116.998;2023-06-14T05:44:55;1.00;1.00;1.00
45700;PMS5003;36277;32.852;-116.998;2023-06-14T05:47:22;0.60;0.60;0.60
45700;PMS5003;36277;32.852;-116.998;2023-06-14T05:49:51;1.00;1.00;1.00
45700;PMS5003;36277;32.852;-116.998;2023-06-14T05:52:17;1.00;1.00;1.00
45700;PMS5003;36277;32.852;-116.998;2023-06-14T05:54:44;1.00;1.00;1.00
45700;PMS5003;36277;32.852;-116.998;2023-06-14T05:57:10;1.00;1.00;1.00
45700;PMS5003;36277;32.852;-116.998;2023-06-14T05:59:37;1.00;1.00;1.00
45700;PMS5003;36277;32.852;-116.998;2023-06-14T06:02:03;1.00;1.00;1.00
45700;PMS5003;36277;32.852;-116.998;2023-06-14T06:04:30;0.00;0.00;0.00
45700;PMS5003;36277;32.852;-116.998;2023-06-14T06:06:56;0.60;0.60;0.60
45700;PMS5003;36277;32.852;-116.998;2023-06-14T06:09:22;1.00;1.00;1.00
45700;PMS5003;36277;32.852;-116.998;2023-06-14T06:11:49;1.00;1.00;1.00
45700;PMS5003;36277;32.852;-116.998;2023-06-14T06:14:15;1.40;1.40;1.40
45700;PMS5003;36277;32.852;-116.998;2023-06-14T06:16:41;2.00;2.00;2.00
45700;PMS5003;36277;32.852;-116.998;2023-06-14T06:19:08;0.00;0.00;0.00
45700;PMS5003;36277;32.852;-116.998;2023-06-14T06:21:34;0.00;0.00;0.00
45700;PMS5003;36277;32.852;-116.998;2023-06-14T06:24:00;1.00;1.00;1.00
45700;PMS5003;36277;32.852;-116.998;2023-06-14T06:26:28;1.00;1.00;1.00
45700;PMS5003;36277;32.852;-116.998;2023-06-14T06:28:55;0.00;0.00;0.00
45700;PMS5003;36277;32.852;-116.998;2023-06-14T06:31:22;1.00;1.00;1.00
45700;PMS5003;36277;32.852;-116.998;2023-06-14T06:33:49;0.20;0.20;0.00
45700;PMS5003;36277;32.852;-116.998;2023-06-14T06:36:15;0.00;0.00;0.00
45700;PMS5003;36277;32.852;-116.998;2023-06-14T06:38:42;0.40;0.40;0.20
45700;PMS5003;36277;32.852;-116.998;2023-06-14T06:41:08;0.00;0.00;0.00
45700;PMS5003;36277;32.852;-116.998;2023-06-14T06:43:34;0.60;0.60;0.60
45700;PMS5003;36277;32.852;-116.998;2023-06-14T06:46:00;0.40;0.40;0.40
45700;PMS5003;36277;32.852;-116.998;2023-06-14T06:48:27;0.00;0.00;0.00
45700;PMS5003;36277;32.852;-116.998;2023-06-14T06:50:54;0.00;0.00;0.00
45700;PMS5003;36277;32.852;-116.998;2023-06-14T06:53:20;0.00;0.00;0.00
45700;PMS5003;36277;32.852;-116.998;2023-06-14T06:55:47;0.00;0.00;0.00
45700;PMS5003;36277;32.852;-116.998;2023-06-14T06:58:14;0.00;0.00;0.00
45700;PMS5003;36277;32.852;-116.998;2023-06-14T07:00:40;0.20;0.20;0.00
45700;PMS5003;36277;32.852;-116.998;2023-06-14T07:03:07;0.00;0.00;0.00
45700;PMS5003;36277;32.852;-116.998;2023-06-14T07:05:33;0.00;0.00;0.00
45700;PMS5003;36277;32.852;-116.998;2023-06-14T07:07:59;0.00;0.00;0.00
45700;PMS5003;36277;32.852;-116.998;2023-06-14T07:10:26;0.00;0.00;0.00
45700;PMS5003;36277;32.852;-116.998;2023-06-14T07:12:55;0.00;0.00;0.00
45700;PMS5003;36277;32.852;-116.998;2023-06-14T07:15:21;0.00;0.00;0.00
45700;PMS5003;36277;32.852;-116.998;2023-06-14T07:17:47;0.00;0.00;0.00
45700;PMS5003;36277;32.852;-116.998;2023-06-14T07:20:14;0.00;0.00;0.00
45700;PMS5003;36277;32.852;-116.998;2023-06-14T07:22:43;0.00;0.00;0.00
45700;PMS5003;36277;32.852;-116.998;2023-06-14T07:25:13;0.00;0.00;0.00
45700;PMS5003;36277;32.852;-116.998;2023-06-14T07:27:40;0.00;0.00;0.00
45700;PMS5003;36277;32.852;-116.998;2023-06-14T07:30:08;1.00;1.00;1.00
45700;PMS5003;36277;32.852;-116.998;2023-06-14T07:32:36;0.40;0.40;0.40
45700;PMS5003;36277;32.852;-116.998;2023-06-14T07:35:02;0.80;0.80;0.80
45700;PMS5003;36277;32.852;-116.998;2023-06-14T07:37:29;0.00;0.00;0.00
45700;PMS5003;36277;32.852;-116.998;2023-06-14T07:39:56;0.60;0.60;0.00
45700;PMS5003;36277;32.852;-116.998;2023-06-14T07:42:22;0.00;0.00;0.00
45700;PMS5003;36277;32.852;-116.998;2023-06-14T07:44:48;0.00;0.00;0.00
45700;PMS5003;36277;32.852;-116.998;2023-06-14T07:47:16;0.20;0.20;0.00
45700;PMS5003;36277;32.852;-116.998;2023-06-14T07:49:42;0.00;0.00;0.00
45700;PMS5003;36277;32.852;-116.998;2023-06-14T07:52:08;0.00;0.00;0.00
45700;PMS5003;36277;32.852;-116.998;2023-06-14T07:54:40;1.00;1.00;0.80
45700;PMS5003;36277;32.852;-116.998;2023-06-14T07:57:14;0.00;0.00;0.00
45700;PMS5003;36277;32.852;-116.998;2023-06-14T07:59:40;0.00;0.00;0.00
45700;PMS5003;36277;32.852;-116.998;2023-06-14T08:02:06;0.00;0.00;0.00
45700;PMS5003;36277;32.852;-116.998;2023-06-14T08:04:33;0.00;0.00;0.00
45700;PMS5003;36277;32.852;-116.998;2023-06-14T08:06:59;0.00;0.00;0.00
45700;PMS5003;36277;32.852;-116.998;2023-06-14T08:09:26;0.00;0.00;0.00
45700;PMS5003;36277;32.852;-116.998;2023-06-14T08:11:54;0.20;0.20;0.00
45700;PMS5003;36277;32.852;-116.998;2023-06-14T08:14:20;0.00;0.00;0.00
45700;PMS5003;36277;32.852;-116.998;2023-06-14T08:16:46;0.40;0.40;0.00
45700;PMS5003;36277;32.852;-116.998;2023-06-14T08:19:13;0.00;0.00;0.00
45700;PMS5003;36277;32.852;-116.998;2023-06-14T08:21:39;1.00;1.00;1.00
45700;PMS5003;36277;32.852;-116.998;2023-06-14T08:24:05;0.00;0.00;0.00
45700;PMS5003;36277;32.852;-116.998;2023-06-14T08:26:32;0.60;0.60;0.60
45700;PMS5003;36277;32.852;-116.998;2023-06-14T08:28:58;0.00;0.00;0.00
45700;PMS5003;36277;32.852;-116.998;2023-06-14T08:31:25;0.00;0.00;0.00
45700;PMS5003;36277;32.852;-116.998;2023-06-14T08:33:52;0.00;0.00;0.00
45700;PMS5003;36277;32.852;-116.998;2023-06-14T08:36:28;0.40;0.40;0.00
45700;PMS5003;36277;32.852;-116.998;2023-06-14T08:38:54;1.00;1.00;1.00
45700;PMS5003;36277;32.852;-116.998;2023-06-14T08:41:21;0.00;0.00;0.00
45700;PMS5003;36277;32.852;-116.998;2023-06-14T08:43:50;1.00;1.00;1.00
45700;PMS5003;36277;32.852;-116.998;2023-06-14T08:46:17;1.00;1.00;0.20
45700;PMS5003;36277;32.852;-116.998;2023-06-14T08:48:54;1.00;1.00;1.00
45700;PMS5003;36277;32.852;-116.998;2023-06-14T08:51:25;0.00;0.00;0.00
45700;PMS5003;36277;32.852;-116.998;2023-06-14T08:53:59;0.00;0.00;0.00
45700;PMS5003;36277;32.852;-116.998;2023-06-14T08:56:30;1.00;1.00;1.00
45700;PMS5003;36277;32.852;-116.998;2023-06-14T08:58:59;0.00;0.00;0.00
45700;PMS5003;36277;32.852;-116.998;2023-06-14T09:01:34;0.20;0.20;0.20
45700;PMS5003;36277;32.852;-116.998;2023-06-14T09:04:02;1.00;1.00;1.00
45700;PMS5003;36277;32.852;-116.998;2023-06-14T09:06:30;1.00;1.00;1.00
45700;PMS5003;36277;32.852;-116.998;2023-06-14T09:08:58;2.00;2.00;2.00
45700;PMS5003;36277;32.852;-116.998;2023-06-14T09:11:24;2.40;2.40;2.00
45700;PMS5003;36277;32.852;-116.998;2023-06-14T09:13:53;3.40;3.00;2.80
45700;PMS5003;36277;32.852;-116.998;2023-06-14T09:16:20;2.00;2.00;1.00
45700;PMS5003;36277;32.852;-116.998;2023-06-14T09:18:46;3.00;3.00;3.00
45700;PMS5003;36277;32.852;-116.998;2023-06-14T09:21:14;2.00;2.00;2.00
45700;PMS5003;36277;32.852;-116.998;2023-06-14T09:23:42;2.00;2.00;2.00
45700;PMS5003;36277;32.852;-116.998;2023-06-14T09:26:22;2.00;2.00;2.00
45700;PMS5003;36277;32.852;-116.998;2023-06-14T09:28:50;3.00;3.00;3.00
45700;PMS5003;36277;32.852;-116.998;2023-06-14T09:31:17;3.00;3.00;2.40
45700;PMS5003;36277;32.852;-116.998;2023-06-14T09:33:45;1.00;1.00;1.00
45700;PMS5003;36277;32.852;-116.998;2023-06-14T09:38:57;3.20;3.20;3.00
45700;PMS5003;36277;32.852;-116.998;2023-06-14T09:41:31;2.00;2.00;2.00
45700;PMS5003;36277;32.852;-116.998;2023-06-14T09:43:58;1.20;1.20;1.20
45700;PMS5003;36277;32.852;-116.998;2023-06-14T09:46:29;2.00;2.00;2.00
45700;PMS5003;36277;32.852;-116.998;2023-06-14T09:48:59;2.60;2.60;2.00
45700;PMS5003;36277;32.852;-116.998;2023-06-14T09:51:27;2.00;2.00;2.00
45700;PMS5003;36277;32.852;-116.998;2023-06-14T09:54:00;2.00;2.00;2.00
45700;PMS5003;36277;32.852;-116.998;2023-06-14T09:56:34;2.00;2.00;1.60
45700;PMS5003;36277;32.852;-116.998;2023-06-14T09:59:04;1.60;1.60;1.20
45700;PMS5003;36277;32.852;-116.998;2023-06-14T10:01:34;2.20;2.20;2.00
45700;PMS5003;36277;32.852;-116.998;2023-06-14T10:04:07;2.00;2.00;1.00
45700;PMS5003;36277;32.852;-116.998;2023-06-14T10:06:36;2.00;2.00;1.60
45700;PMS5003;36277;32.852;-116.998;2023-06-14T10:09:07;3.00;3.00;2.00
45700;PMS5003;36277;32.852;-116.998;2023-06-14T10:11:35;2.00;2.00;1.60
45700;PMS5003;36277;32.852;-116.998;2023-06-14T10:14:05;1.40;1.40;1.40
45700;PMS5003;36277;32.852;-116.998;2023-06-14T10:16:34;2.00;2.00;2.00
45700;PMS5003;36277;32.852;-116.998;2023-06-14T10:19:48;2.20;2.20;2.00
45700;PMS5003;36277;32.852;-116.998;2023-06-14T10:22:18;2.00;2.00;2.00
45700;PMS5003;36277;32.852;-116.998;2023-06-14T10:25:12;1.40;1.40;1.20
45700;PMS5003;36277;32.852;-116.998;2023-06-14T10:27:51;2.00;2.00;2.00
45700;PMS5003;36277;32.852;-116.998;2023-06-14T10:30:17;2.00;2.00;2.00
45700;PMS5003;36277;32.852;-116.998;2023-06-14T10:33:04;1.80;1.80;1.20
45700;PMS5003;36277;32.852;-116.998;2023-06-14T10:35:35;2.00;2.00;2.00
45700;PMS5003;36277;32.852;-116.998;2023-06-14T10:38:07;3.00;3.00;3.00
45700;PMS5003;36277;32.852;-116.998;2023-06-14T10:46:46;3.00;3.00;3.00
45700;PMS5003;36277;32.852;-116.998;2023-06-14T10:49:18;2.00;2.00;2.00
45700;PMS5003;36277;32.852;-116.998;2023-06-14T10:51:46;2.00;2.00;1.80
45700;PMS5003;36277;32.852;-116.998;2023-06-14T10:54:17;2.00;2.00;2.00
45700;PMS5003;36277;32.852;-116.998;2023-06-14T10:56:52;2.00;2.00;2.00
45700;PMS5003;36277;32.852;-116.998;2023-06-14T10:59:20;3.00;3.00;2.00
45700;PMS5003;36277;32.852;-116.998;2023-06-14T11:04:52;3.00;3.00;2.60
45700;PMS5003;36277;32.852;-116.998;2023-06-14T11:10:45;2.00;2.00;2.00
45700;PMS5003;36277;32.852;-116.998;2023-06-14T11:13:08;3.00;3.00;3.00
45700;PMS5003;36277;32.852;-116.998;2023-06-14T11:15:36;3.00;3.00;2.80
45700;PMS5003;36277;32.852;-116.998;2023-06-14T11:18:04;3.00;3.00;3.00
45700;PMS5003;36277;32.852;-116.998;2023-06-14T11:20:32;3.00;3.00;2.80
45700;PMS5003;36277;32.852;-116.998;2023-06-14T11:23:01;3.25;3.25;3.00
45700;PMS5003;36277;32.852;-116.998;2023-06-14T11:25:28;4.40;4.40;4.00
45700;PMS5003;36277;32.852;-116.998;2023-06-14T11:27:55;2.00;2.00;2.00
45700;PMS5003;36277;32.852;-116.998;2023-06-14T11:30:22;3.00;3.00;2.80
45700;PMS5003;36277;32.852;-116.998;2023-06-14T11:32:51;4.00;4.00;3.60
45700;PMS5003;36277;32.852;-116.998;2023-06-14T11:35:19;4.80;4.80;4.20
45700;PMS5003;36277;32.852;-116.998;2023-06-14T11:37:53;3.40;3.40;3.00
45700;PMS5003;36277;32.852;-116.998;2023-06-14T11:40:25;2.20;2.20;2.20
45700;PMS5003;36277;32.852;-116.998;2023-06-14T11:42:59;3.00;3.00;3.00
45700;PMS5003;36277;32.852;-116.998;2023-06-14T11:45:27;2.40;2.40;2.00
45700;PMS5003;36277;32.852;-116.998;2023-06-14T11:47:55;3.00;3.00;3.00
45700;PMS5003;36277;32.852;-116.998;2023-06-14T11:50:22;3.00;3.00;2.40
45700;PMS5003;36277;32.852;-116.998;2023-06-14T11:52:55;1.00;1.00;1.00
45700;PMS5003;36277;32.852;-116.998;2023-06-14T11:55:23;3.00;3.00;3.00
45700;PMS5003;36277;32.852;-116.998;2023-06-14T11:57:50;3.00;3.00;2.20
45700;PMS5003;36277;32.852;-116.998;2023-06-14T12:00:17;3.00;3.00;3.00
45700;PMS5003;36277;32.852;-116.998;2023-06-14T12:02:53;1.00;1.00;1.00
45700;PMS5003;36277;32.852;-116.998;2023-06-14T12:05:23;3.00;3.00;3.00
45700;PMS5003;36277;32.852;-116.998;2023-06-14T12:07:57;3.00;3.00;3.00
45700;PMS5003;36277;32.852;-116.998;2023-06-14T12:10:28;3.60;3.60;3.00
45700;PMS5003;36277;32.852;-116.998;2023-06-14T12:12:58;3.60;3.60;3.00
45700;PMS5003;36277;32.852;-116.998;2023-06-14T12:15:28;4.00;4.00;3.20
45700;PMS5003;36277;32.852;-116.998;2023-06-14T12:17:58;2.40;2.40;2.00
45700;PMS5003;36277;32.852;-116.998;2023-06-14T12:20:28;3.60;3.60;3.00
45700;PMS5003;36277;32.852;-116.998;2023-06-14T12:22:56;4.20;4.20;4.00
45700;PMS5003;36277;32.852;-116.998;2023-06-14T12:25:30;2.00;2.00;2.00
45700;PMS5003;36277;32.852;-116.998;2023-06-14T12:28:04;3.00;3.00;3.00
45700;PMS5003;36277;32.852;-116.998;2023-06-14T12:30:33;4.20;4.20;3.60
45700;PMS5003;36277;32.852;-116.998;2023-06-14T12:33:04;3.60;3.60;3.00
45700;PMS5003;36277;32.852;-116.998;2023-06-14T12:35:31;3.80;3.80;3.00
45700;PMS5003;36277;32.852;-116.998;2023-06-14T12:37:57;3.00;3.00;2.40
45700;PMS5003;36277;32.852;-116.998;2023-06-14T12:40:23;1.20;1.20;1.20
45700;PMS5003;36277;32.852;-116.998;2023-06-14T12:42:50;3.00;3.00;2.40
45700;PMS5003;36277;32.852;-116.998;2023-06-14T12:45:16;3.60;3.60;3.00
45700;PMS5003;36277;32.852;-116.998;2023-06-14T12:47:50;3.60;3.60;3.00
45700;PMS5003;36277;32.852;-116.998;2023-06-14T12:50:17;3.80;3.80;3.00
45700;PMS5003;36277;32.852;-116.998;2023-06-14T12:52:43;3.20;3.20;2.80
45700;PMS5003;36277;32.852;-116.998;2023-06-14T12:55:09;3.00;3.00;3.00
45700;PMS5003;36277;32.852;-116.998;2023-06-14T12:57:36;1.00;1.00;0.80
45700;PMS5003;36277;32.852;-116.998;2023-06-14T13:00:03;2.80;2.80;2.40
45700;PMS5003;36277;32.852;-116.998;2023-06-14T13:02:31;4.00;4.00;3.00
45700;PMS5003;36277;32.852;-116.998;2023-06-14T13:04:57;2.80;2.80;2.80
45700;PMS5003;36277;32.852;-116.998;2023-06-14T13:07:24;3.00;3.00;2.60
45700;PMS5003;36277;32.852;-116.998;2023-06-14T13:09:50;3.00;3.00;3.00
45700;PMS5003;36277;32.852;-116.998;2023-06-14T13:12:16;1.60;1.60;1.40
45700;PMS5003;36277;32.852;-116.998;2023-06-14T13:14:42;3.00;3.00;2.80
45700;PMS5003;36277;32.852;-116.998;2023-06-14T13:17:12;2.00;2.00;2.00
45700;PMS5003;36277;32.852;-116.998;2023-06-14T13:19:44;2.00;2.00;2.00
45700;PMS5003;36277;32.852;-116.998;2023-06-14T13:22:11;3.20;3.20;3.00
45700;PMS5003;36277;32.852;-116.998;2023-06-14T13:24:37;2.20;2.20;2.00
45700;PMS5003;36277;32.852;-116.998;2023-06-14T13:27:03;2.80;2.80;2.80
45700;PMS5003;36277;32.852;-116.998;2023-06-14T13:29:30;3.00;3.00;3.00
45700;PMS5003;36277;32.852;-116.998;2023-06-14T13:31:58;2.00;2.00;2.00
45700;PMS5003;36277;32.852;-116.998;2023-06-14T13:34:25;2.20;2.20;2.00
45700;PMS5003;36277;32.852;-116.998;2023-06-14T13:36:51;3.00;3.00;3.00
45700;PMS5003;36277;32.852;-116.998;2023-06-14T13:39:17;2.80;2.80;2.40
45700;PMS5003;36277;32.852;-116.998;2023-06-14T13:41:44;3.00;3.00;2.60
45700;PMS5003;36277;32.852;-116.998;2023-06-14T13:44:10;3.00;3.00;2.60
45700;PMS5003;36277;32.852;-116.998;2023-06-14T13:46:39;1.80;1.80;1.00
45700;PMS5003;36277;32.852;-116.998;2023-06-14T13:49:08;3.00;3.00;3.00
45700;PMS5003;36277;32.852;-116.998;2023-06-14T13:51:35;3.00;3.00;3.00
45700;PMS5003;36277;32.852;-116.998;2023-06-14T13:54:01;2.80;2.80;2.60
45700;PMS5003;36277;32.852;-116.998;2023-06-14T13:56:27;2.00;2.00;2.00
45700;PMS5003;36277;32.852;-116.998;2023-06-14T13:58:55;3.00;3.00;3.00
45700;PMS5003;36277;32.852;-116.998;2023-06-14T14:01:21;2.60;2.60;2.00
45700;PMS5003;36277;32.852;-116.998;2023-06-14T14:03:48;2.40;2.40;2.00
45700;PMS5003;36277;32.852;-116.998;2023-06-14T14:06:15;3.00;3.00;2.60
45700;PMS5003;36277;32.852;-116.998;2023-06-14T14:08:42;3.80;3.80;3.00
45700;PMS5003;36277;32.852;-116.998;2023-06-14T14:11:09;1.20;1.20;1.20